Aérodrome :
LOGIN :

S'inscrire | Disclaimer

   EN    FR    IT 

 










Légende :    VFR   VFR Marginal   IFR   IFR Intensif   IFR Très Intensif
Visi : 
Plafond : 
>= 8 km
>= 3000ft
5 à 8 km
1000 à 3000 ft
1500m à 5 km
500 à 1000 ft
800 à 1500m
200 à 500 ft
< 800m
< 200 ft
Symboles :   Orages  Brouillard  Fortes neiges  Fortes précipitations  Vent > 20 kt
SIGMETs :   Divers  Orages  Givrage  Turbulence  Onde Orograph.  Cendres Volcan.






- Altitude de l'aérodrome : 909 ft
- Code IATA : KSF


EDVK - Kassel Calden

DERNIER METAR :
  • 211520Z 18012KT 150V220 9999 FEW030 06/01 Q0995

METARs EXPIRÉS :
  • 211450Z 19011KT 150V230 9999 FEW028 06/01 Q0995
  • 211420Z 20012G22KT 160V230 9999 FEW020 07/02 Q0995
  • 211350Z 20015G28KT 160V230 9999 FEW015 07/02 Q0994
  • 211320Z 20014KT 9999 FEW016 07/02 Q0995
  • 211250Z 20015KT 9999 FEW016 06/02 Q0995

TAF TAF EDVK
Valide du 21 à 15h jusqu'au 22 à 00h UTC


211400Z 2115/2124 19012KT 9999 SCT030
PROB30
TEMPO 2115/2117 20015G25KT
TEMPO 2120/2124 RA
BECMG 2121/2124 20015G30KT



MET'MAP, la Météo Aéronautique d'un coup d'oeil ! - Copyright ORBIFLY Décembre 2007 - Disclaimer

ORBIFLY MET'MAP TEAM :

Programmation & Développement : Alexandra Zaïnal
Sur une idée originale de : Baudouin d'Aumeries
Assistance à la programmation : Marc-Olivier Méhu
Soutien technique & logistique : Manuel Goepfert

Contact : metmap@orbifly.com




SOURCES & CREDITS :

   NOAA